createdAt,value
2018-02-16T00:00:58.575Z,62.30
2018-02-16T00:03:26.133Z,56.77
2018-02-16T00:05:53.802Z,51.20
2018-02-16T00:08:21.376Z,54.17
2018-02-16T00:10:48.940Z,81.00
2018-02-16T00:13:16.510Z,58.53
2018-02-16T00:15:44.182Z,53.13
2018-02-16T00:18:12.009Z,43.83
2018-02-16T00:20:39.617Z,41.97
2018-02-16T00:23:07.169Z,40.23
2018-02-16T00:25:34.966Z,41.43
2018-02-16T00:28:02.781Z,42.97
2018-02-16T00:30:30.398Z,42.23
2018-02-16T00:32:57.957Z,41.73
2018-02-16T00:35:25.735Z,41.83
2018-02-16T00:37:53.554Z,46.90
2018-02-16T00:40:21.273Z,44.37
2018-02-16T00:42:49.091Z,43.60
2018-02-16T00:45:16.658Z,46.43
2018-02-16T00:47:44.244Z,54.23
2018-02-16T00:50:12.047Z,59.33
2018-02-16T00:52:39.738Z,44.70
2018-02-16T00:55:07.359Z,45.07
2018-02-16T00:57:35.100Z,42.97
2018-02-16T01:00:02.818Z,40.73
2018-02-16T01:02:30.399Z,41.30
2018-02-16T01:04:58.118Z,41.23
2018-02-16T01:07:25.737Z,43.57
2018-02-16T01:09:53.403Z,46.13
2018-02-16T01:12:21.110Z,50.07
2018-02-16T01:14:48.927Z,47.77
2018-02-16T01:17:16.532Z,48.23
2018-02-16T01:19:44.158Z,63.37
2018-02-16T01:22:11.726Z,80.13
2018-02-16T01:24:39.498Z,73.67
2018-02-16T01:27:07.315Z,62.13
2018-02-16T01:29:34.943Z,56.63
2018-02-16T01:32:02.753Z,75.73
2018-02-16T01:34:30.314Z,70.50
2018-02-16T01:36:58.090Z,59.73
2018-02-16T01:39:26.009Z,47.67
2018-02-16T01:41:53.576Z,41.43
2018-02-16T01:44:21.193Z,39.67
2018-02-16T01:46:48.963Z,40.27
2018-02-16T01:49:16.520Z,40.57
2018-02-16T01:51:44.077Z,43.07
2018-02-16T01:54:11.817Z,43.60
2018-02-16T01:56:39.427Z,47.63
2018-02-16T01:59:06.978Z,47.50
2018-02-16T02:01:34.771Z,48.67
2018-02-16T02:04:02.490Z,46.93
2018-02-16T02:06:30.055Z,50.63
2018-02-16T02:08:57.676Z,52.63
2018-02-16T02:11:25.229Z,48.87
2018-02-16T02:13:52.795Z,50.83
2018-02-16T02:16:20.579Z,50.87
2018-02-16T02:18:48.143Z,47.87
2018-02-16T02:21:15.761Z,42.77
2018-02-16T02:23:43.319Z,34.43
2018-02-16T02:26:11.051Z,29.63
2018-02-16T02:28:38.869Z,29.93
2018-02-16T02:31:06.590Z,29.83
2018-02-16T02:33:34.209Z,29.20
2018-02-16T02:36:01.770Z,45.27
2018-02-16T02:38:29.332Z,39.33
2018-02-16T02:40:56.915Z,37.57
2018-02-16T02:43:24.485Z,36.67
2018-02-16T02:45:52.188Z,40.17
2018-02-16T02:48:19.760Z,42.47
2018-02-16T02:50:47.489Z,43.30
2018-02-16T02:53:15.054Z,42.47
2018-02-16T02:55:42.680Z,31.43
2018-02-16T02:58:10.293Z,30.30
2018-02-16T03:00:38.104Z,40.27
2018-02-16T03:03:05.823Z,44.97
2018-02-16T03:05:33.399Z,44.70
2018-02-16T03:08:00.963Z,63.03
2018-02-16T03:10:28.589Z,61.37
2018-02-16T03:12:56.393Z,57.90
2018-02-16T03:15:23.953Z,50.00
2018-02-16T03:17:51.733Z,49.47
2018-02-16T03:20:19.548Z,50.03
2018-02-16T03:22:47.169Z,45.80
2018-02-16T03:25:14.730Z,45.87
2018-02-16T03:27:42.287Z,40.93
2018-02-16T03:30:09.869Z,37.33
2018-02-16T03:32:37.638Z,29.90
2018-02-16T03:35:05.282Z,19.20
2018-02-16T03:37:32.846Z,36.20
2018-02-16T03:40:00.404Z,67.37
2018-02-16T03:42:28.903Z,53.13
2018-02-16T03:44:56.635Z,44.70
2018-02-16T03:47:24.283Z,41.27
2018-02-16T03:49:51.874Z,40.00
2018-02-16T03:52:19.685Z,42.97
2018-02-16T03:54:47.505Z,42.43
2018-02-16T03:57:15.086Z,43.37
2018-02-16T03:59:42.679Z,44.07
2018-02-16T04:02:10.434Z,39.93
2018-02-16T04:04:38.057Z,44.70
2018-02-16T04:07:05.796Z,43.13
2018-02-16T04:09:33.514Z,42.20
2018-02-16T04:12:01.136Z,41.80
2018-02-16T04:14:28.698Z,43.37
2018-02-16T04:16:56.255Z,32.37
2018-02-16T04:19:23.984Z,34.90
2018-02-16T04:21:51.703Z,34.33
2018-02-16T04:24:19.329Z,35.43
2018-02-16T04:26:46.910Z,41.60
2018-02-16T04:29:14.468Z,58.53
2018-02-16T04:31:42.063Z,55.33
2018-02-16T04:34:09.791Z,63.13
2018-02-16T04:36:37.561Z,66.53
2018-02-16T04:39:05.328Z,47.03
2018-02-16T04:41:33.044Z,36.63
2018-02-16T04:44:00.616Z,37.67
2018-02-16T04:46:28.383Z,47.33
2018-02-16T04:48:56.201Z,37.80
2018-02-16T04:51:23.769Z,32.47
2018-02-16T04:53:51.330Z,32.73
2018-02-16T04:56:18.946Z,35.30
2018-02-16T04:58:46.502Z,35.23
2018-02-16T05:01:14.248Z,33.13
2018-02-16T05:03:41.814Z,32.77
2018-02-16T05:06:09.628Z,31.67
2018-02-16T05:08:37.236Z,33.37
2018-02-16T05:11:04.862Z,35.37
2018-02-16T05:13:32.498Z,34.23
2018-02-16T05:16:00.301Z,41.10
2018-02-16T05:18:28.267Z,37.93
2018-02-16T05:20:56.002Z,38.43
2018-02-16T05:23:23.561Z,38.77
2018-02-16T05:25:51.294Z,37.03
2018-02-16T05:28:18.857Z,44.30
2018-02-16T05:30:46.603Z,45.10
2018-02-16T05:33:14.427Z,44.77
2018-02-16T05:35:41.990Z,52.60
2018-02-16T05:38:09.741Z,44.93
2018-02-16T05:40:37.396Z,46.40
2018-02-16T05:43:05.030Z,44.03
2018-02-16T05:45:32.602Z,44.03
2018-02-16T05:48:00.223Z,44.73
2018-02-16T05:50:27.794Z,38.60
2018-02-16T05:52:55.350Z,34.43
2018-02-16T05:55:22.978Z,34.70
2018-02-16T05:57:50.707Z,35.67
2018-02-16T06:00:18.273Z,37.27
2018-02-16T06:02:45.943Z,40.13
2018-02-16T06:05:13.661Z,42.90
2018-02-16T06:07:41.306Z,40.43
2018-02-16T06:10:09.100Z,34.33
2018-02-16T06:12:36.661Z,39.40
2018-02-16T06:15:04.277Z,37.33
2018-02-16T06:17:31.834Z,32.13
2018-02-16T06:19:59.500Z,32.77
2018-02-16T06:22:27.287Z,30.93
2018-02-16T06:24:54.863Z,36.00
2018-02-16T06:27:22.466Z,41.93
2018-02-16T06:29:50.121Z,37.00
2018-02-16T06:32:17.737Z,37.20
2018-02-16T06:34:45.439Z,31.47
2018-02-16T06:37:12.998Z,35.73
2018-02-16T06:39:40.813Z,38.37
2018-02-16T06:42:08.532Z,37.90
2018-02-16T06:44:36.329Z,41.27
2018-02-16T06:47:03.886Z,41.23
2018-02-16T06:49:31.687Z,34.50
2018-02-16T06:51:59.262Z,32.27
2018-02-16T06:54:26.921Z,30.93
2018-02-16T06:56:54.685Z,28.13
2018-02-16T06:59:22.243Z,30.80
2018-02-16T07:01:49.803Z,34.57
2018-02-16T07:04:17.558Z,35.90
2018-02-16T07:06:45.315Z,41.23
2018-02-16T07:09:13.131Z,46.30
2018-02-16T07:11:40.689Z,51.33
2018-02-16T07:14:08.249Z,47.77
2018-02-16T07:16:35.828Z,49.83
2018-02-16T07:19:03.390Z,51.10
2018-02-16T07:21:31.018Z,43.60
2018-02-16T07:23:58.643Z,30.43
2018-02-16T07:26:26.220Z,37.67
2018-02-16T07:28:53.794Z,52.20
2018-02-16T07:31:21.362Z,40.93
2018-02-16T07:33:48.989Z,39.97
2018-02-16T07:36:16.719Z,36.50
2018-02-16T07:38:44.271Z,38.97
2018-02-16T07:41:12.067Z,31.50
2018-02-16T07:43:39.625Z,32.13
2018-02-16T07:46:07.254Z,33.00
2018-02-16T07:48:34.822Z,32.67
2018-02-16T07:51:02.427Z,41.10
2018-02-16T07:53:29.979Z,34.67
2018-02-16T07:55:57.632Z,35.80
2018-02-16T07:58:25.465Z,32.47
2018-02-16T08:00:53.060Z,31.83
2018-02-16T08:03:20.728Z,33.07
2018-02-16T08:05:48.544Z,31.40
2018-02-16T08:08:16.120Z,31.77
2018-02-16T08:10:43.754Z,28.77
2018-02-16T08:13:11.323Z,33.27
2018-02-16T08:15:39.120Z,32.40
2018-02-16T08:18:07.766Z,28.63
2018-02-16T08:20:35.377Z,25.20
2018-02-16T08:23:02.997Z,25.53
2018-02-16T08:25:30.796Z,26.03
2018-02-16T08:27:58.358Z,29.07
2018-02-16T08:30:25.930Z,25.50
2018-02-16T08:32:53.489Z,24.23
2018-02-16T08:35:21.127Z,22.80
2018-02-16T08:37:48.851Z,42.67
2018-02-16T08:40:16.567Z,22.77
2018-02-16T08:42:44.284Z,27.57
2018-02-16T08:45:11.877Z,26.70
2018-02-16T08:47:39.654Z,22.43
2018-02-16T08:50:07.227Z,21.90
2018-02-16T08:52:34.803Z,22.10
2018-02-16T08:55:02.378Z,19.23
2018-02-16T08:57:29.937Z,18.20
2018-02-16T08:59:57.637Z,18.53
2018-02-16T09:02:25.362Z,18.87
2018-02-16T09:04:53.081Z,17.63
2018-02-16T09:07:20.898Z,14.73
2018-02-16T09:09:48.470Z,14.70
2018-02-16T09:12:16.180Z,15.33
2018-02-16T09:14:43.723Z,16.83
2018-02-16T09:17:11.470Z,17.93
2018-02-16T09:19:39.042Z,16.60
2018-02-16T09:22:06.602Z,18.40
2018-02-16T09:24:34.429Z,23.23
2018-02-16T09:27:02.144Z,18.30
2018-02-16T09:29:29.861Z,22.43
2018-02-16T09:31:57.467Z,20.17
2018-02-16T09:34:25.015Z,19.53
2018-02-16T09:36:54.720Z,17.73
2018-02-16T09:39:23.465Z,23.63
2018-02-16T09:41:51.025Z,37.13
2018-02-16T09:44:18.600Z,20.90
2018-02-16T09:46:46.179Z,24.70
2018-02-16T09:49:14.017Z,24.90
2018-02-16T09:51:41.563Z,18.10
2018-02-16T09:54:09.182Z,45.07
2018-02-16T09:56:36.809Z,16.33
2018-02-16T09:59:04.399Z,19.30
2018-02-16T10:01:32.123Z,19.10
2018-02-16T10:03:59.689Z,22.13
2018-02-16T10:06:27.268Z,57.27
2018-02-16T10:08:54.967Z,28.17
2018-02-16T10:11:22.558Z,21.40
2018-02-16T10:13:50.175Z,22.30
2018-02-16T10:16:18.014Z,22.23
2018-02-16T10:18:45.832Z,19.93
2018-02-16T10:21:13.429Z,18.57
2018-02-16T10:23:41.059Z,24.37
2018-02-16T10:26:08.692Z,19.47
2018-02-16T10:28:36.261Z,20.80
2018-02-16T10:31:03.894Z,22.07
2018-02-16T10:33:31.740Z,16.80
2018-02-16T10:35:59.301Z,18.17
2018-02-16T10:38:27.076Z,18.90
2018-02-16T10:40:54.659Z,16.43
2018-02-16T10:43:22.302Z,17.57
2018-02-16T10:45:49.878Z,21.60
2018-02-16T10:48:17.547Z,18.57
2018-02-16T10:50:45.233Z,15.70
2018-02-16T10:53:12.872Z,20.57
2018-02-16T10:55:40.590Z,247.87
2018-02-16T10:58:08.178Z,11.90
2018-02-16T11:00:41.660Z,102.73
2018-02-16T11:03:14.813Z,73.90
2018-02-16T11:05:47.799Z,18.13
2018-02-16T11:08:21.038Z,20.40
2018-02-16T11:10:48.606Z,16.57
2018-02-16T11:13:16.199Z,12.43
2018-02-16T11:15:43.761Z,15.80
2018-02-16T11:18:11.386Z,14.07
2018-02-16T11:20:39.042Z,13.20
2018-02-16T11:23:07.392Z,13.83
2018-02-16T11:25:37.101Z,20.60
2018-02-16T11:28:04.661Z,23.70
2018-02-16T11:30:32.273Z,13.90
2018-02-16T11:32:59.856Z,8.87
2018-02-16T11:35:27.403Z,15.57
2018-02-16T11:37:55.006Z,13.10
2018-02-16T11:40:22.786Z,12.40
2018-02-16T11:42:50.628Z,31.07
2018-02-16T11:45:18.202Z,17.17
2018-02-16T11:47:45.765Z,21.00
2018-02-16T11:50:13.334Z,8.67
2018-02-16T11:52:40.913Z,38.00
2018-02-16T11:55:08.530Z,10.10
2018-02-16T11:57:36.341Z,10.47
2018-02-16T12:00:04.157Z,12.43
2018-02-16T12:02:31.976Z,9.47
2018-02-16T12:04:59.590Z,85.30
2018-02-16T12:07:27.205Z,39.50
2018-02-16T12:09:54.775Z,22.43
2018-02-16T12:12:22.439Z,18.00
2018-02-16T12:14:50.146Z,22.00
2018-02-16T12:17:17.884Z,9.87
2018-02-16T12:19:45.593Z,32.77
2018-02-16T12:22:13.201Z,30.17
2018-02-16T12:24:40.748Z,11.50
2018-02-16T12:27:08.313Z,10.47
2018-02-16T12:29:35.878Z,11.50
2018-02-16T12:32:03.514Z,16.63
2018-02-16T12:34:31.360Z,43.97
2018-02-16T12:36:59.019Z,21.23
2018-02-16T12:39:26.746Z,10.60
2018-02-16T12:41:54.564Z,15.80
2018-02-16T12:44:22.275Z,9.83
2018-02-16T12:46:50.293Z,10.97
2018-02-16T12:49:17.867Z,10.47
2018-02-16T12:51:45.452Z,9.00
2018-02-16T12:54:13.050Z,9.37
2018-02-16T12:56:40.844Z,15.00
2018-02-16T12:59:08.397Z,8.70
2018-02-16T13:01:36.101Z,10.00
2018-02-16T13:04:03.674Z,8.67
2018-02-16T13:06:31.237Z,9.90
2018-02-16T13:08:58.857Z,8.93
2018-02-16T13:11:26.422Z,8.50
2018-02-16T13:13:54.052Z,9.43
2018-02-16T13:16:21.614Z,8.07
2018-02-16T13:18:49.178Z,9.27
2018-02-16T13:21:16.827Z,8.83
2018-02-16T13:23:44.377Z,8.40
2018-02-16T13:26:11.965Z,8.07
2018-02-16T13:28:39.530Z,8.93
2018-02-16T13:31:07.085Z,9.17
2018-02-16T13:33:34.715Z,10.40
2018-02-16T13:36:02.284Z,10.10
2018-02-16T13:38:29.868Z,9.97
2018-02-16T13:40:57.596Z,9.70
2018-02-16T13:43:25.313Z,8.73
2018-02-16T13:45:52.930Z,8.27
2018-02-16T13:48:20.493Z,8.30
2018-02-16T13:50:48.186Z,11.70
2018-02-16T13:53:15.754Z,18.17
2018-02-16T13:55:43.317Z,9.30
2018-02-16T13:58:11.002Z,8.30
2018-02-16T14:00:38.561Z,8.30
2018-02-16T14:03:06.243Z,8.80
2018-02-16T14:05:33.864Z,10.30
2018-02-16T14:08:02.092Z,10.30
2018-02-16T14:10:29.827Z,10.43
2018-02-16T14:12:57.390Z,8.83
2018-02-16T14:15:25.010Z,19.10
2018-02-16T14:17:52.578Z,7.83
2018-02-16T14:20:20.155Z,9.90
2018-02-16T14:22:48.009Z,9.60
2018-02-16T14:25:15.578Z,12.13
2018-02-16T14:27:43.160Z,10.53
2018-02-16T14:30:10.850Z,10.67
2018-02-16T14:32:38.448Z,11.63
2018-02-16T14:35:06.070Z,14.20
2018-02-16T14:37:33.778Z,12.90
2018-02-16T14:40:01.499Z,10.73
2018-02-16T14:42:29.076Z,11.83
2018-02-16T14:44:56.638Z,11.10
2018-02-16T14:47:24.267Z,12.20
2018-02-16T14:49:51.862Z,14.97
2018-02-16T14:52:19.582Z,12.73
2018-02-16T14:54:47.149Z,13.50
2018-02-16T14:57:14.958Z,12.83
2018-02-16T14:59:42.573Z,13.63
2018-02-16T15:02:10.137Z,18.13
2018-02-16T15:04:37.836Z,14.80
2018-02-16T15:07:05.506Z,12.33
2018-02-16T15:09:33.158Z,26.40
2018-02-16T15:12:00.881Z,22.40
2018-02-16T15:14:28.462Z,26.63
2018-02-16T15:16:56.037Z,14.57
2018-02-16T15:19:23.644Z,14.30
2018-02-16T15:21:51.214Z,19.63
2018-02-16T15:24:18.838Z,21.60
2018-02-16T15:26:46.569Z,15.60
2018-02-16T15:29:14.288Z,23.40
2018-02-16T15:31:41.878Z,26.40
2018-02-16T15:34:09.825Z,23.70
2018-02-16T15:36:37.517Z,17.93
2018-02-16T15:39:05.321Z,16.97
2018-02-16T15:41:32.918Z,13.90
2018-02-16T15:44:00.490Z,23.73
2018-02-16T15:46:28.054Z,32.43
2018-02-16T15:48:55.745Z,21.03
2018-02-16T15:51:24.351Z,22.07
2018-02-16T15:53:51.988Z,24.57
2018-02-16T15:56:19.701Z,30.37
2018-02-16T15:58:47.312Z,23.60
2018-02-16T16:01:14.918Z,31.00
2018-02-16T16:03:42.645Z,41.03
2018-02-16T16:06:10.214Z,172.07
2018-02-16T16:08:37.794Z,151.37
2018-02-16T16:11:05.600Z,86.77
2018-02-16T16:13:33.220Z,65.43
2018-02-16T16:16:00.934Z,35.33
2018-02-16T16:18:28.494Z,37.47
2018-02-16T16:20:56.066Z,71.77
2018-02-16T16:23:23.790Z,115.10
2018-02-16T16:25:51.498Z,49.60
2018-02-16T16:28:19.225Z,73.77
2018-02-16T16:30:46.793Z,112.53
2018-02-16T16:33:14.452Z,41.63
2018-02-16T16:35:42.022Z,31.53
2018-02-16T16:38:09.815Z,45.37
2018-02-16T16:40:37.382Z,156.63
2018-02-16T16:43:04.942Z,38.00
2018-02-16T16:45:32.530Z,34.37
2018-02-16T16:48:00.268Z,32.70
2018-02-16T16:50:28.087Z,35.60
2018-02-16T16:52:55.647Z,55.57
2018-02-16T16:55:23.221Z,64.63
2018-02-16T16:57:51.144Z,39.50
2018-02-16T17:00:18.715Z,37.63
2018-02-16T17:02:46.338Z,37.57
2018-02-16T17:05:14.099Z,26.20
2018-02-16T17:07:41.914Z,107.13
2018-02-16T17:10:09.494Z,193.00
2018-02-16T17:12:37.051Z,92.77
2018-02-16T17:15:04.868Z,55.63
2018-02-16T17:17:32.425Z,108.90
2018-02-16T17:19:59.981Z,49.47
2018-02-16T17:22:27.555Z,64.40
2018-02-16T17:24:55.117Z,48.33
2018-02-16T17:27:22.737Z,44.73
2018-02-16T17:29:50.476Z,29.37
2018-02-16T17:32:18.034Z,39.50
2018-02-16T17:34:45.600Z,30.93
2018-02-16T17:37:13.163Z,31.47
2018-02-16T17:39:41.047Z,36.97
2018-02-16T17:42:08.611Z,80.60
2018-02-16T17:44:36.179Z,70.70
2018-02-16T17:47:04.007Z,49.83
2018-02-16T17:49:31.721Z,47.13
2018-02-16T17:51:59.329Z,53.17
2018-02-16T17:54:27.055Z,69.03
2018-02-16T17:56:54.618Z,96.90
2018-02-16T17:59:22.206Z,96.10
2018-02-16T18:01:49.801Z,66.93
2018-02-16T18:04:17.434Z,56.80
2018-02-16T18:06:44.994Z,42.30
2018-02-16T18:09:12.572Z,60.77
2018-02-16T18:11:40.205Z,59.67
2018-02-16T18:14:07.999Z,64.93
2018-02-16T18:16:35.618Z,63.10
2018-02-16T18:19:03.178Z,66.33
2018-02-16T18:21:30.868Z,64.90
2018-02-16T18:23:58.506Z,101.57
2018-02-16T18:26:26.253Z,80.03
2018-02-16T18:28:53.873Z,73.87
2018-02-16T18:31:21.437Z,67.83
2018-02-16T18:33:49.243Z,69.83
2018-02-16T18:36:16.827Z,88.77
2018-02-16T18:38:44.579Z,78.83
2018-02-16T18:41:12.202Z,74.30
2018-02-16T18:43:40.016Z,81.97
2018-02-16T18:46:07.578Z,81.20
2018-02-16T18:48:35.321Z,80.80
2018-02-16T18:51:02.876Z,77.67
2018-02-16T18:53:30.505Z,79.40
2018-02-16T18:55:58.074Z,82.50
2018-02-16T18:58:25.635Z,86.30
2018-02-16T19:00:53.322Z,113.40
2018-02-16T19:03:20.871Z,123.50
2018-02-16T19:05:48.504Z,129.80
2018-02-16T19:08:16.069Z,116.53
2018-02-16T19:10:43.676Z,98.80
2018-02-16T19:13:11.255Z,71.17
2018-02-16T19:15:38.933Z,71.90
2018-02-16T19:18:06.554Z,74.83
2018-02-16T19:20:34.121Z,101.37
2018-02-16T19:23:01.677Z,73.63
2018-02-16T19:25:29.242Z,47.97
2018-02-16T19:27:57.038Z,42.90
2018-02-16T19:30:24.670Z,41.03
2018-02-16T19:32:52.248Z,43.10
2018-02-16T19:35:19.809Z,47.67
2018-02-16T19:37:47.610Z,43.03
2018-02-16T19:40:15.435Z,67.73
2018-02-16T19:42:43.548Z,47.63
2018-02-16T19:45:11.113Z,52.23
2018-02-16T19:47:38.685Z,56.10
2018-02-16T19:50:06.287Z,42.83
2018-02-16T19:52:33.853Z,57.20
2018-02-16T19:55:01.465Z,53.40
2018-02-16T19:57:29.255Z,47.93
2018-02-16T19:59:57.075Z,41.00
2018-02-16T20:02:24.883Z,37.90
2018-02-16T20:04:52.611Z,35.20
2018-02-16T20:07:20.222Z,36.83
2018-02-16T20:09:47.906Z,38.97
2018-02-16T20:12:15.558Z,42.33
2018-02-16T20:14:43.282Z,41.53
2018-02-16T20:17:11.102Z,43.67
2018-02-16T20:19:38.919Z,44.87
2018-02-16T20:22:06.473Z,48.33
2018-02-16T20:24:34.120Z,78.93
2018-02-16T20:27:01.695Z,83.50
2018-02-16T20:29:29.270Z,80.10
2018-02-16T20:31:56.899Z,99.80
2018-02-16T20:34:24.477Z,107.57
2018-02-16T20:36:52.068Z,120.90
2018-02-16T20:39:19.650Z,131.50
2018-02-16T20:41:47.233Z,125.57
2018-02-16T20:44:14.857Z,68.00
2018-02-16T20:46:42.414Z,56.63
2018-02-16T20:49:09.970Z,41.20
2018-02-16T20:51:37.752Z,38.63
2018-02-16T20:54:05.309Z,38.30
2018-02-16T20:56:33.089Z,40.13
2018-02-16T20:59:00.780Z,41.67
2018-02-16T21:01:28.531Z,52.67
2018-02-16T21:03:56.126Z,45.70
2018-02-16T21:06:23.729Z,45.57
2018-02-16T21:08:51.381Z,45.30
2018-02-16T21:11:19.122Z,67.60
2018-02-16T21:13:46.915Z,51.67
2018-02-16T21:16:14.734Z,48.67
2018-02-16T21:18:42.306Z,58.33
2018-02-16T21:21:09.925Z,44.07
2018-02-16T21:23:37.505Z,49.37
2018-02-16T21:26:05.057Z,49.93
2018-02-16T21:28:32.658Z,52.53
2018-02-16T21:31:00.217Z,44.77
2018-02-16T21:33:27.823Z,48.97
2018-02-16T21:35:55.577Z,57.50
2018-02-16T21:38:23.177Z,63.60
2018-02-16T21:40:50.741Z,56.13
2018-02-16T21:43:18.315Z,121.87
2018-02-16T21:45:45.942Z,79.80
2018-02-16T21:48:13.641Z,85.30
2018-02-16T21:50:41.193Z,82.80
2018-02-16T21:53:08.766Z,69.63
2018-02-16T21:55:36.325Z,52.70
2018-02-16T21:58:03.950Z,43.27
2018-02-16T22:00:31.757Z,41.77
2018-02-16T22:02:59.575Z,42.23
2018-02-16T22:05:27.141Z,51.93
2018-02-16T22:07:54.911Z,46.37
2018-02-16T22:10:22.576Z,46.53
2018-02-16T22:12:50.134Z,50.10
2018-02-16T22:15:17.678Z,51.70
2018-02-16T22:17:45.482Z,52.20
2018-02-16T22:20:13.040Z,52.60
2018-02-16T22:22:40.664Z,50.87
2018-02-16T22:25:08.231Z,47.43
2018-02-16T22:27:35.874Z,46.17
2018-02-16T22:30:03.654Z,43.73
2018-02-16T22:32:31.390Z,45.60
2018-02-16T22:34:59.017Z,47.93
2018-02-16T22:37:26.578Z,42.60
2018-02-16T22:39:54.119Z,39.50
2018-02-16T22:42:21.836Z,39.13
2018-02-16T22:44:49.397Z,39.90
2018-02-16T22:47:16.961Z,37.77
2018-02-16T22:49:44.558Z,41.53
2018-02-16T22:52:12.334Z,40.80
2018-02-16T22:54:40.073Z,46.23
2018-02-16T22:57:07.618Z,43.63
2018-02-16T22:59:35.166Z,44.00
2018-02-16T23:02:02.726Z,47.47
2018-02-16T23:04:30.345Z,45.17
2018-02-16T23:06:57.918Z,45.53
2018-02-16T23:09:25.482Z,44.50
2018-02-16T23:11:53.054Z,44.43
2018-02-16T23:14:20.625Z,43.37
2018-02-16T23:16:48.274Z,46.63
2018-02-16T23:19:16.030Z,45.33
2018-02-16T23:21:43.617Z,46.10
2018-02-16T23:24:11.221Z,45.73
2018-02-16T23:26:38.781Z,47.87
2018-02-16T23:29:06.602Z,45.93
2018-02-16T23:31:34.421Z,47.67
2018-02-16T23:34:01.986Z,50.47
2018-02-16T23:36:29.757Z,47.40
2018-02-16T23:38:57.317Z,44.67
2018-02-16T23:41:24.882Z,42.93
2018-02-16T23:43:52.392Z,40.23
2018-02-16T23:46:20.019Z,41.43
2018-02-16T23:48:47.587Z,44.93
2018-02-16T23:51:15.150Z,42.43
2018-02-16T23:53:42.733Z,43.53
2018-02-16T23:56:10.551Z,46.10
2018-02-16T23:58:38.107Z,46.73
